createdAt,value
2019-02-27T00:00:16.822Z,1027.58
2019-02-27T00:01:17.537Z,1027.59
2019-02-27T00:02:16.826Z,1027.62
2019-02-27T00:03:16.788Z,1027.57
2019-02-27T00:04:16.777Z,1027.60
2019-02-27T00:05:16.767Z,1027.60
2019-02-27T00:06:16.757Z,1027.63
2019-02-27T00:07:20.809Z,1027.61
2019-02-27T00:08:16.744Z,1027.57
2019-02-27T00:09:16.729Z,1027.56
2019-02-27T00:10:16.714Z,1027.59
2019-02-27T00:11:16.703Z,1027.54
2019-02-27T00:12:16.996Z,1027.56
2019-02-27T00:13:16.684Z,1027.55
2019-02-27T00:14:16.688Z,1027.56
2019-02-27T00:15:16.666Z,1027.55
2019-02-27T00:16:16.651Z,1027.55
2019-02-27T00:17:18.018Z,1027.49
2019-02-27T00:18:16.631Z,1027.46
2019-02-27T00:19:16.619Z,1027.51
2019-02-27T00:20:16.617Z,1027.49
2019-02-27T00:21:16.601Z,1027.50
2019-02-27T00:22:17.647Z,1027.40
2019-02-27T00:23:16.577Z,1027.37
2019-02-27T00:24:16.565Z,1027.36
2019-02-27T00:25:16.553Z,1027.38
2019-02-27T00:26:16.558Z,1027.40
2019-02-27T00:27:16.534Z,1027.39
2019-02-27T00:28:16.522Z,1027.46
2019-02-27T00:29:16.513Z,1027.43
2019-02-27T00:30:16.507Z,1027.47
2019-02-27T00:31:16.490Z,1027.43
2019-02-27T00:32:18.490Z,1027.44
2019-02-27T00:33:16.469Z,1027.39
2019-02-27T00:34:16.461Z,1027.40
2019-02-27T00:35:16.456Z,1027.43
2019-02-27T00:36:16.437Z,1027.39
2019-02-27T00:37:18.815Z,1027.34
2019-02-27T00:38:16.425Z,1027.31
2019-02-27T00:39:16.407Z,1027.26
2019-02-27T00:40:16.396Z,1027.25
2019-02-27T00:41:16.383Z,1027.28
2019-02-27T00:42:19.579Z,1027.32
2019-02-27T00:43:16.360Z,1027.28
2019-02-27T00:44:16.361Z,1027.29
2019-02-27T00:45:16.338Z,1027.25
2019-02-27T00:46:16.329Z,1027.24
2019-02-27T00:47:17.060Z,1027.27
2019-02-27T00:48:16.310Z,1027.23
2019-02-27T00:49:16.296Z,1027.21
2019-02-27T00:50:16.294Z,1027.15
2019-02-27T00:51:16.274Z,1027.12
2019-02-27T00:52:18.229Z,1027.11
2019-02-27T00:53:16.251Z,1027.12
2019-02-27T00:54:16.242Z,1027.04
2019-02-27T00:55:16.231Z,1027.05
2019-02-27T00:56:16.229Z,1027.05
2019-02-27T00:57:20.620Z,1027.06
2019-02-27T00:58:17.197Z,1027.06
2019-02-27T00:59:16.191Z,1027.10
2019-02-27T01:00:16.176Z,1027.02
2019-02-27T01:01:16.176Z,1027.08
2019-02-27T01:02:19.970Z,1027.09
2019-02-27T01:03:16.145Z,1027.10
2019-02-27T01:04:16.138Z,1027.03
2019-02-27T01:05:16.142Z,1027.02
2019-02-27T01:06:16.112Z,1027.04
2019-02-27T01:07:20.250Z,1027.05
2019-02-27T01:08:16.103Z,1027.07
2019-02-27T01:09:16.082Z,1027.05
2019-02-27T01:10:16.070Z,1026.99
2019-02-27T01:11:18.421Z,1026.92
2019-02-27T01:12:16.053Z,1026.92
2019-02-27T01:13:16.054Z,1026.95
2019-02-27T01:14:16.044Z,1026.94
2019-02-27T01:15:16.019Z,1026.91
2019-02-27T01:16:17.266Z,1026.95
2019-02-27T01:36:37.277Z,1026.70
2019-02-27T01:36:45.449Z,1026.75
2019-02-27T01:37:45.434Z,1026.71
2019-02-27T01:38:45.425Z,1026.70
2019-02-27T01:39:45.435Z,1026.72
2019-02-27T01:40:45.401Z,1026.71
2019-02-27T01:41:45.407Z,1026.64
2019-02-27T01:42:45.389Z,1026.66
2019-02-27T01:43:45.371Z,1026.64
2019-02-27T01:44:46.682Z,1026.60
2019-02-27T01:45:45.349Z,1026.54
2019-02-27T01:46:45.341Z,1026.51
2019-02-27T01:58:17.765Z,1026.44
2019-02-27T01:59:11.260Z,1026.44
2019-02-27T02:00:11.235Z,1026.35
2019-02-27T02:01:11.225Z,1026.41
2019-02-27T02:02:11.213Z,1026.41
2019-02-27T02:03:33.308Z,1026.35
2019-02-27T02:04:11.194Z,1026.31
2019-02-27T02:05:11.195Z,1026.30
2019-02-27T02:06:11.187Z,1026.25
2019-02-27T02:07:11.164Z,1026.25
2019-02-27T02:08:14.020Z,1026.28
2019-02-27T02:09:11.169Z,1026.23
2019-02-27T02:10:11.131Z,1026.22
2019-02-27T02:11:11.174Z,1026.18
2019-02-27T02:12:11.110Z,1026.16
2019-02-27T02:13:14.825Z,1026.19
2019-02-27T02:14:11.088Z,1026.13
2019-02-27T02:15:11.094Z,1026.14
2019-02-27T02:16:11.068Z,1026.10
2019-02-27T02:17:11.090Z,1026.03
2019-02-27T02:18:11.913Z,1026.09
2019-02-27T02:19:11.049Z,1026.08
2019-02-27T02:20:11.027Z,1026.02
2019-02-27T02:21:11.019Z,1026.06
2019-02-27T02:22:11.006Z,1025.99
2019-02-27T02:23:13.972Z,1026.02
2019-02-27T02:24:10.989Z,1025.92
2019-02-27T02:25:10.990Z,1025.94
2019-02-27T02:26:10.964Z,1025.98
2019-02-27T02:27:10.962Z,1025.92
2019-02-27T02:28:12.091Z,1025.93
2019-02-27T02:29:10.954Z,1025.93
2019-02-27T02:30:10.941Z,1025.89
2019-02-27T02:31:10.924Z,1025.84
2019-02-27T02:32:16.851Z,1025.85
2019-02-27T02:33:11.890Z,1025.86
2019-02-27T02:34:10.881Z,1025.85
2019-02-27T02:35:14.823Z,1025.82
2019-02-27T02:36:10.859Z,1025.83
2019-02-27T02:37:10.851Z,1025.78
2019-02-27T02:38:12.577Z,1025.80
2019-02-27T02:39:10.826Z,1025.74
2019-02-27T02:40:10.822Z,1025.78
2019-02-27T02:41:10.817Z,1025.72
2019-02-27T02:42:10.795Z,1025.75
2019-02-27T02:43:10.806Z,1025.72
2019-02-27T02:44:10.775Z,1025.68
2019-02-27T02:45:10.762Z,1025.75
2019-02-27T02:46:10.751Z,1025.67
2019-02-27T02:47:10.769Z,1025.69
2019-02-27T02:48:10.737Z,1025.65
2019-02-27T02:49:10.721Z,1025.65
2019-02-27T02:50:10.708Z,1025.65
2019-02-27T02:51:10.717Z,1025.70
2019-02-27T02:52:10.687Z,1025.63
2019-02-27T02:53:10.691Z,1025.59
2019-02-27T02:54:10.665Z,1025.61
2019-02-27T02:55:12.497Z,1025.60
2019-02-27T02:56:10.644Z,1025.60
2019-02-27T02:57:10.635Z,1025.52
2019-02-27T02:58:11.330Z,1025.49
2019-02-27T02:59:10.627Z,1025.45
2019-02-27T03:00:10.599Z,1025.45
2019-02-27T03:01:14.181Z,1025.44
2019-02-27T03:02:10.579Z,1025.40
2019-02-27T03:03:10.567Z,1025.42
2019-02-27T03:04:12.801Z,1025.36
2019-02-27T03:05:10.557Z,1025.38
2019-02-27T03:06:10.538Z,1025.35
2019-02-27T03:07:11.066Z,1025.25
2019-02-27T03:08:10.514Z,1025.26
2019-02-27T03:09:10.508Z,1025.30
2019-02-27T03:10:10.493Z,1025.22
2019-02-27T03:11:10.492Z,1025.23
2019-02-27T03:12:10.471Z,1025.24
2019-02-27T03:13:10.466Z,1025.21
2019-02-27T03:14:17.247Z,1025.21
2019-02-27T03:15:11.436Z,1025.19
2019-02-27T03:16:10.429Z,1025.19
2019-02-27T03:17:10.511Z,1025.16
2019-02-27T03:18:10.405Z,1025.16
2019-02-27T03:19:10.402Z,1025.19
2019-02-27T03:20:10.384Z,1025.16
2019-02-27T03:21:10.375Z,1025.14
2019-02-27T03:22:10.365Z,1025.13
2019-02-27T03:23:15.311Z,1025.14
2019-02-27T03:24:11.342Z,1025.14
2019-02-27T03:25:10.330Z,1025.16
2019-02-27T03:26:16.496Z,1025.12
2019-02-27T03:27:11.311Z,1025.07
2019-02-27T03:28:10.299Z,1025.14
2019-02-27T03:29:15.561Z,1025.09
2019-02-27T03:30:11.285Z,1025.07
2019-02-27T03:31:16.204Z,1025.08
2019-02-27T03:32:11.261Z,1025.07
2019-02-27T03:33:10.255Z,1025.02
2019-02-27T03:34:10.246Z,1025.01
2019-02-27T03:35:10.271Z,1024.96
2019-02-27T03:36:10.225Z,1024.97
2019-02-27T03:37:13.183Z,1024.93
2019-02-27T03:38:10.191Z,1024.91
2019-02-27T03:39:10.181Z,1024.95
2019-02-27T03:40:11.764Z,1024.91
2019-02-27T03:41:10.170Z,1024.94
2019-02-27T03:42:10.148Z,1024.99
2019-02-27T03:43:11.363Z,1024.94
2019-02-27T03:44:10.128Z,1024.93
2019-02-27T03:45:10.120Z,1024.99
2019-02-27T03:46:10.112Z,1024.98
2019-02-27T03:47:15.611Z,1024.93
2019-02-27T03:48:11.083Z,1024.90
2019-02-27T03:49:10.073Z,1024.90
2019-02-27T03:50:14.660Z,1024.89
2019-02-27T03:51:11.050Z,1024.88
2019-02-27T03:52:10.040Z,1024.90
2019-02-27T03:53:11.079Z,1024.87
2019-02-27T03:54:10.019Z,1024.90
2019-02-27T03:55:10.008Z,1024.89
2019-02-27T03:56:10.124Z,1024.87
2019-02-27T03:57:09.987Z,1024.85
2019-02-27T03:58:09.980Z,1024.88
2019-02-27T03:59:09.976Z,1024.86
2019-02-27T04:00:09.954Z,1024.91
2019-02-27T04:01:09.944Z,1024.85
2019-02-27T04:02:09.932Z,1024.86
2019-02-27T04:03:09.924Z,1024.82
2019-02-27T04:04:09.937Z,1024.82
2019-02-27T04:05:09.910Z,1024.86
2019-02-27T04:06:09.890Z,1024.83
2019-02-27T04:07:09.881Z,1024.78
2019-02-27T04:08:09.869Z,1024.86
2019-02-27T04:09:09.870Z,1024.86
2019-02-27T04:10:09.849Z,1024.84
2019-02-27T04:11:09.846Z,1024.84
2019-02-27T04:12:09.825Z,1024.89
2019-02-27T04:13:09.815Z,1024.88
2019-02-27T04:14:09.803Z,1024.85
2019-02-27T04:15:09.792Z,1024.88
2019-02-27T04:16:09.782Z,1024.81
2019-02-27T04:17:09.788Z,1024.84
2019-02-27T04:18:09.761Z,1024.83
2019-02-27T04:19:09.750Z,1024.84
2019-02-27T04:20:14.626Z,1024.80
2019-02-27T04:21:10.727Z,1024.83
2019-02-27T04:22:09.746Z,1024.82
2019-02-27T04:23:12.494Z,1024.81
2019-02-27T04:24:09.696Z,1024.81
2019-02-27T04:25:09.686Z,1024.82
2019-02-27T04:26:09.679Z,1024.81
2019-02-27T04:27:09.665Z,1024.83
2019-02-27T04:28:09.662Z,1024.80
2019-02-27T04:29:09.658Z,1024.81
2019-02-27T04:30:14.679Z,1024.76
2019-02-27T04:31:10.626Z,1024.74
2019-02-27T04:32:12.435Z,1024.80
2019-02-27T04:33:09.601Z,1024.74
2019-02-27T04:34:09.591Z,1024.81
2019-02-27T04:35:09.595Z,1024.81
2019-02-27T04:36:12.461Z,1024.78
2019-02-27T04:37:09.558Z,1024.77
2019-02-27T04:38:09.547Z,1024.75
2019-02-27T04:39:09.537Z,1024.74
2019-02-27T04:40:11.236Z,1024.76
2019-02-27T04:41:09.526Z,1024.75
2019-02-27T04:42:09.504Z,1024.80
2019-02-27T04:43:09.494Z,1024.74
2019-02-27T04:44:09.485Z,1024.79
2019-02-27T04:45:09.876Z,1024.80
2019-02-27T04:46:09.463Z,1024.79
2019-02-27T04:47:09.462Z,1024.76
2019-02-27T04:48:09.443Z,1024.74
2019-02-27T04:49:09.437Z,1024.71
2019-02-27T04:50:11.284Z,1024.74
2019-02-27T04:51:09.409Z,1024.72
2019-02-27T04:52:09.400Z,1024.79
2019-02-27T04:53:09.398Z,1024.78
2019-02-27T04:54:09.376Z,1024.72
2019-02-27T04:55:09.365Z,1024.75
2019-02-27T04:56:09.356Z,1024.73
2019-02-27T04:57:09.344Z,1024.69
2019-02-27T04:58:09.675Z,1024.73
2019-02-27T04:59:09.336Z,1024.67
2019-02-27T05:00:09.318Z,1024.70
2019-02-27T05:01:09.308Z,1024.71
2019-02-27T05:02:09.291Z,1024.66
2019-02-27T05:03:09.279Z,1024.65
2019-02-27T05:04:09.271Z,1024.63
2019-02-27T05:05:09.332Z,1024.64
2019-02-27T05:06:09.247Z,1024.57
2019-02-27T05:07:09.237Z,1024.55
2019-02-27T05:08:09.227Z,1024.58
2019-02-27T05:09:09.218Z,1024.59
2019-02-27T05:10:09.209Z,1024.53
2019-02-27T05:11:09.212Z,1024.52
2019-02-27T05:12:09.183Z,1024.53
2019-02-27T05:13:09.172Z,1024.49
2019-02-27T05:14:09.163Z,1024.51
2019-02-27T05:15:09.150Z,1024.55
2019-02-27T05:16:09.139Z,1024.55
2019-02-27T05:17:09.140Z,1024.52
2019-02-27T05:18:09.118Z,1024.55
2019-02-27T05:19:09.113Z,1024.58
2019-02-27T05:20:11.837Z,1024.56
2019-02-27T05:21:09.089Z,1024.54
2019-02-27T05:22:09.077Z,1024.61
2019-02-27T05:23:09.076Z,1024.55
2019-02-27T05:24:09.055Z,1024.59
2019-02-27T05:25:09.045Z,1024.59
2019-02-27T05:26:09.034Z,1024.57
2019-02-27T05:27:09.023Z,1024.57
2019-02-27T05:28:09.013Z,1024.57
2019-02-27T05:29:09.013Z,1024.60
2019-02-27T05:30:12.035Z,1024.62
2019-02-27T05:31:08.983Z,1024.62
2019-02-27T05:32:08.972Z,1024.63
2019-02-27T05:33:08.963Z,1024.62
2019-02-27T05:34:12.467Z,1024.64
2019-02-27T05:35:08.952Z,1024.69
2019-02-27T05:36:08.937Z,1024.68
2019-02-27T05:37:08.919Z,1024.62
2019-02-27T05:38:08.908Z,1024.63
2019-02-27T05:39:08.896Z,1024.61
2019-02-27T05:40:08.890Z,1024.63
2019-02-27T05:41:08.888Z,1024.64
2019-02-27T05:42:08.864Z,1024.63
2019-02-27T05:43:13.160Z,1024.68
2019-02-27T05:44:08.843Z,1024.66
2019-02-27T05:45:08.833Z,1024.71
2019-02-27T05:46:08.822Z,1024.70
2019-02-27T05:47:11.091Z,1024.63
2019-02-27T05:48:08.800Z,1024.60
2019-02-27T05:49:08.789Z,1024.57
2019-02-27T05:50:08.796Z,1024.51
2019-02-27T05:51:10.673Z,1024.50
2019-02-27T05:52:08.757Z,1024.51
2019-02-27T05:53:10.545Z,1024.46
2019-02-27T05:54:08.736Z,1024.48
2019-02-27T05:55:08.725Z,1024.46
2019-02-27T05:56:08.715Z,1024.44
2019-02-27T05:57:08.704Z,1024.49
2019-02-27T05:58:08.693Z,1024.50
2019-02-27T05:59:08.693Z,1024.52
2019-02-27T06:00:08.678Z,1024.53
2019-02-27T06:01:08.661Z,1024.53
2019-02-27T06:02:10.783Z,1024.58
2019-02-27T06:03:08.641Z,1024.55
2019-02-27T06:04:08.632Z,1024.51
2019-02-27T06:05:08.630Z,1024.58
2019-02-27T06:06:11.501Z,1024.56
2019-02-27T06:07:08.599Z,1024.61
2019-02-27T06:08:08.590Z,1024.53
2019-02-27T06:09:10.368Z,1024.57
2019-02-27T06:10:08.651Z,1024.50
2019-02-27T06:11:08.568Z,1024.50
2019-02-27T06:12:09.847Z,1024.47
2019-02-27T06:13:08.538Z,1024.42
2019-02-27T06:14:08.527Z,1024.48
2019-02-27T06:15:08.516Z,1024.43
2019-02-27T06:16:09.272Z,1024.46
2019-02-27T06:17:10.092Z,1024.46
2019-02-27T06:18:08.483Z,1024.43
2019-02-27T06:19:08.504Z,1024.40
2019-02-27T06:20:08.582Z,1024.38
2019-02-27T06:21:08.453Z,1024.40
2019-02-27T06:22:08.440Z,1024.42
2019-02-27T06:23:08.443Z,1024.40
2019-02-27T06:24:11.666Z,1024.40
2019-02-27T06:25:08.417Z,1024.42
2019-02-27T06:26:08.403Z,1024.35
2019-02-27T06:27:08.388Z,1024.41
2019-02-27T06:28:08.378Z,1024.38
2019-02-27T06:29:08.385Z,1024.35
2019-02-27T06:30:08.363Z,1024.33
2019-02-27T06:31:08.347Z,1024.30
2019-02-27T06:32:11.872Z,1024.27
2019-02-27T06:33:11.650Z,1024.27
2019-02-27T06:34:08.317Z,1024.31
2019-02-27T06:35:08.315Z,1024.24
2019-02-27T06:36:08.599Z,1024.26
2019-02-27T06:37:08.284Z,1024.26
2019-02-27T06:38:08.272Z,1024.26
2019-02-27T06:39:08.811Z,1024.24
2019-02-27T06:40:08.251Z,1024.33
2019-02-27T06:41:08.251Z,1024.24
2019-02-27T06:42:08.294Z,1024.27
2019-02-27T06:43:08.219Z,1024.30
2019-02-27T06:44:08.208Z,1024.25
2019-02-27T06:45:10.258Z,1024.24
2019-02-27T06:46:08.187Z,1024.29
2019-02-27T06:47:08.187Z,1024.31
2019-02-27T06:48:10.244Z,1024.25
2019-02-27T06:49:08.157Z,1024.28
2019-02-27T06:50:08.144Z,1024.31
2019-02-27T06:51:08.135Z,1024.29
2019-02-27T06:52:09.282Z,1024.33
2019-02-27T06:53:08.125Z,1024.33
2019-02-27T06:54:08.102Z,1024.34
2019-02-27T06:55:08.091Z,1024.35
2019-02-27T06:56:08.090Z,1024.34
2019-02-27T06:57:08.421Z,1024.34
2019-02-27T06:58:08.058Z,1024.37
2019-02-27T06:59:08.057Z,1024.33
2019-02-27T07:00:08.038Z,1024.33
2019-02-27T07:01:09.710Z,1024.35
2019-02-27T07:02:08.016Z,1024.36
2019-02-27T07:03:08.006Z,1024.37
2019-02-27T07:04:08.279Z,1024.32
2019-02-27T07:05:07.998Z,1024.36
2019-02-27T07:06:07.972Z,1024.30
2019-02-27T07:07:07.961Z,1024.30
2019-02-27T07:08:07.951Z,1024.28
2019-02-27T07:09:11.341Z,1024.32
2019-02-27T07:10:07.930Z,1024.30
2019-02-27T07:11:10.950Z,1024.22
2019-02-27T07:12:07.909Z,1024.26
2019-02-27T07:13:07.900Z,1024.23
2019-02-27T07:14:07.887Z,1024.23
2019-02-27T07:15:10.314Z,1024.27
2019-02-27T07:16:07.866Z,1024.24
2019-02-27T07:17:07.866Z,1024.27
2019-02-27T07:18:07.846Z,1024.29
2019-02-27T07:19:07.834Z,1024.37
2019-02-27T07:20:08.847Z,1024.34
2019-02-27T07:21:07.814Z,1024.31
2019-02-27T07:22:09.310Z,1024.35
2019-02-27T07:23:07.806Z,1024.39
2019-02-27T07:24:07.783Z,1024.46
2019-02-27T07:25:07.771Z,1024.52
2019-02-27T07:26:07.760Z,1024.55
2019-02-27T07:27:07.748Z,1024.56
2019-02-27T07:28:09.165Z,1024.60
2019-02-27T07:29:07.739Z,1024.58
2019-02-27T07:30:08.117Z,1024.63
2019-02-27T07:31:07.706Z,1024.62
2019-02-27T07:32:07.695Z,1024.62
2019-02-27T07:33:07.683Z,1024.57
2019-02-27T07:34:07.673Z,1024.52
2019-02-27T07:35:07.675Z,1024.55
2019-02-27T07:36:07.653Z,1024.52
2019-02-27T07:37:07.641Z,1024.56
2019-02-27T07:38:07.630Z,1024.56
2019-02-27T07:39:07.636Z,1024.62
2019-02-27T07:40:08.625Z,1024.52
2019-02-27T07:41:07.633Z,1024.53
2019-02-27T07:42:07.588Z,1024.48
2019-02-27T07:43:07.576Z,1024.51
2019-02-27T07:44:07.565Z,1024.54
2019-02-27T07:45:08.126Z,1024.58
2019-02-27T07:46:07.544Z,1024.55
2019-02-27T07:47:07.547Z,1024.59
2019-02-27T07:48:07.522Z,1024.55
2019-02-27T07:49:07.511Z,1024.57
2019-02-27T07:50:08.838Z,1024.63
2019-02-27T07:51:07.490Z,1024.63
2019-02-27T07:52:07.479Z,1024.65
2019-02-27T07:53:07.482Z,1024.70
2019-02-27T07:54:07.457Z,1024.66
2019-02-27T07:55:18.511Z,1024.70
2019-02-27T07:56:08.440Z,1024.67
2019-02-27T07:57:07.425Z,1024.67
2019-02-27T07:58:07.415Z,1024.64
2019-02-27T07:59:07.414Z,1024.60
2019-02-27T08:00:07.392Z,1024.62
2019-02-27T08:01:07.382Z,1024.59
2019-02-27T08:02:07.370Z,1024.63
2019-02-27T08:03:09.843Z,1024.56
2019-02-27T08:04:07.372Z,1024.63
2019-02-27T08:05:07.360Z,1024.58
2019-02-27T08:06:07.326Z,1024.56
2019-02-27T08:07:09.974Z,1024.57
2019-02-27T08:08:08.306Z,1024.55
2019-02-27T08:09:07.295Z,1024.56
2019-02-27T08:10:07.283Z,1024.50
2019-02-27T08:11:07.289Z,1024.56
2019-02-27T08:12:07.261Z,1024.55
2019-02-27T08:13:07.251Z,1024.51
2019-02-27T08:14:07.240Z,1024.45
2019-02-27T08:15:07.229Z,1024.42
2019-02-27T08:16:07.219Z,1024.38
2019-02-27T08:17:17.199Z,1024.34
2019-02-27T08:18:08.313Z,1024.26
2019-02-27T08:19:08.921Z,1024.28
2019-02-27T08:20:07.178Z,1024.28
2019-02-27T08:21:07.167Z,1024.37
2019-02-27T08:22:07.153Z,1024.48
2019-02-27T08:23:07.152Z,1024.57
2019-02-27T08:24:07.660Z,1024.54
2019-02-27T08:25:07.120Z,1024.59
2019-02-27T08:26:07.108Z,1024.67
2019-02-27T08:27:09.582Z,1024.70
2019-02-27T08:28:07.089Z,1024.73
2019-02-27T08:29:07.124Z,1024.62
2019-02-27T08:30:07.066Z,1024.60
2019-02-27T08:31:07.053Z,1024.66
2019-02-27T08:32:07.044Z,1024.63
2019-02-27T08:33:08.440Z,1024.68
2019-02-27T08:34:07.021Z,1024.63
2019-02-27T08:35:07.029Z,1024.67
2019-02-27T08:36:07.008Z,1024.65
2019-02-27T08:37:06.989Z,1024.71
2019-02-27T08:38:06.979Z,1024.76
2019-02-27T08:39:06.968Z,1024.73
2019-02-27T08:40:06.957Z,1024.73
2019-02-27T08:41:06.958Z,1024.73
2019-02-27T08:42:06.936Z,1024.75
2019-02-27T08:43:06.925Z,1024.70
2019-02-27T08:44:06.915Z,1024.69
2019-02-27T08:45:06.907Z,1024.68
2019-02-27T08:46:06.892Z,1024.68
2019-02-27T08:47:07.797Z,1024.73
2019-02-27T08:48:06.871Z,1024.72
2019-02-27T08:49:06.860Z,1024.71
2019-02-27T08:50:06.854Z,1024.70
2019-02-27T08:51:08.754Z,1024.77
2019-02-27T08:52:08.421Z,1024.82
2019-02-27T08:53:06.827Z,1024.83
2019-02-27T08:54:06.805Z,1024.79
2019-02-27T08:55:06.794Z,1024.82
2019-02-27T08:56:06.783Z,1024.81
2019-02-27T08:57:06.772Z,1024.79
2019-02-27T08:58:07.285Z,1024.78
2019-02-27T08:59:06.761Z,1024.83
2019-02-27T09:00:06.740Z,1024.78
2019-02-27T09:01:06.730Z,1024.79
2019-02-27T09:02:06.717Z,1024.83
2019-02-27T09:03:06.708Z,1024.90
2019-02-27T09:04:11.465Z,1024.83
2019-02-27T09:05:07.702Z,1024.88
2019-02-27T09:06:06.676Z,1024.91
2019-02-27T09:07:06.662Z,1024.91
2019-02-27T09:08:07.361Z,1024.93
2019-02-27T09:09:07.968Z,1024.93
2019-02-27T09:10:06.629Z,1024.85
2019-02-27T09:11:06.914Z,1024.83
2019-02-27T09:12:06.607Z,1024.80
2019-02-27T09:13:06.604Z,1024.88
2019-02-27T09:14:06.586Z,1024.85
2019-02-27T09:15:06.574Z,1024.84
2019-02-27T09:16:06.563Z,1024.77
2019-02-27T09:17:06.561Z,1024.83
2019-02-27T09:18:06.541Z,1024.81
2019-02-27T09:19:09.251Z,1024.79
2019-02-27T09:20:06.518Z,1024.81
2019-02-27T09:21:06.514Z,1024.82
2019-02-27T09:22:06.496Z,1024.86
2019-02-27T09:23:06.496Z,1024.86
2019-02-27T09:24:06.475Z,1024.85
2019-02-27T09:25:06.465Z,1024.84
2019-02-27T09:26:06.455Z,1024.84
2019-02-27T09:27:06.443Z,1024.85
2019-02-27T09:28:09.205Z,1024.82
2019-02-27T09:29:06.433Z,1024.85
2019-02-27T09:30:06.412Z,1024.91
2019-02-27T09:31:06.401Z,1024.87
2019-02-27T09:32:06.390Z,1024.92
2019-02-27T09:33:06.381Z,1024.90
2019-02-27T09:34:06.494Z,1024.89
2019-02-27T09:35:06.370Z,1024.91
2019-02-27T09:36:08.014Z,1024.89
2019-02-27T09:37:06.336Z,1024.87
2019-02-27T09:38:06.326Z,1024.85
2019-02-27T09:39:06.315Z,1024.82
2019-02-27T09:40:06.311Z,1024.58
2019-02-27T09:41:06.305Z,1024.36
2019-02-27T09:42:06.284Z,1024.23
2019-02-27T09:43:06.381Z,1024.10
2019-02-27T09:44:06.265Z,1023.98
2019-02-27T09:45:08.227Z,1023.94
2019-02-27T09:46:06.319Z,1023.94
2019-02-27T09:47:06.240Z,1023.90
2019-02-27T09:48:06.220Z,1023.86
2019-02-27T09:49:07.085Z,1023.83
2019-02-27T09:50:06.198Z,1023.80
2019-02-27T09:51:06.188Z,1023.86
2019-02-27T09:52:06.176Z,1023.81
2019-02-27T09:53:06.179Z,1023.85
2019-02-27T09:54:08.069Z,1023.83
2019-02-27T09:55:06.144Z,1023.85
2019-02-27T09:56:06.133Z,1023.78
2019-02-27T09:57:06.122Z,1023.78
2019-02-27T09:58:10.073Z,1023.80
2019-02-27T09:59:06.111Z,1023.80
2019-02-27T10:00:06.090Z,1023.78
2019-02-27T10:01:06.079Z,1023.78
2019-02-27T10:02:08.758Z,1023.69
2019-02-27T10:03:06.058Z,1023.75
2019-02-27T10:04:06.052Z,1023.74
2019-02-27T10:05:06.046Z,1023.67
2019-02-27T10:06:08.746Z,1023.67
2019-02-27T10:07:06.018Z,1023.66
2019-02-27T10:08:07.485Z,1023.64
2019-02-27T10:09:05.994Z,1023.67
2019-02-27T10:10:10.200Z,1023.61
2019-02-27T10:11:05.992Z,1023.59
2019-02-27T10:12:05.961Z,1023.58
2019-02-27T10:13:05.950Z,1023.64
2019-02-27T10:14:05.940Z,1023.58
2019-02-27T10:15:05.930Z,1023.61
2019-02-27T10:16:05.920Z,1023.58
2019-02-27T10:17:06.732Z,1023.56
2019-02-27T10:18:05.897Z,1023.57
2019-02-27T10:19:05.886Z,1023.54
2019-02-27T10:20:05.876Z,1023.54
2019-02-27T10:21:05.870Z,1023.48
2019-02-27T10:22:05.854Z,1023.49
2019-02-27T10:23:05.855Z,1023.44
2019-02-27T10:24:05.836Z,1023.46
2019-02-27T10:25:08.593Z,1023.43
2019-02-27T10:26:05.813Z,1023.39
2019-02-27T10:27:05.800Z,1023.34
2019-02-27T10:28:05.790Z,1023.39
2019-02-27T10:29:05.796Z,1023.35
2019-02-27T10:30:11.450Z,1023.34
2019-02-27T10:31:06.757Z,1023.31
2019-02-27T10:32:05.749Z,1023.36
2019-02-27T10:33:05.736Z,1023.32
2019-02-27T10:34:05.725Z,1023.26
2019-02-27T10:35:05.726Z,1023.29
2019-02-27T10:36:05.704Z,1023.28
2019-02-27T10:37:05.723Z,1023.28
2019-02-27T10:38:05.683Z,1023.26
2019-02-27T10:39:05.670Z,1023.26
2019-02-27T10:40:05.659Z,1023.19
2019-02-27T10:41:05.659Z,1023.17
2019-02-27T10:42:05.638Z,1023.15
2019-02-27T10:43:05.629Z,1023.09
2019-02-27T10:44:05.617Z,1023.12
2019-02-27T10:45:09.815Z,1023.09
2019-02-27T10:46:05.593Z,1023.09
2019-02-27T10:47:05.600Z,1023.10
2019-02-27T10:48:05.572Z,1023.10
2019-02-27T10:49:05.561Z,1023.06
2019-02-27T10:50:05.549Z,1023.06
2019-02-27T10:51:05.538Z,1023.09
2019-02-27T10:52:05.539Z,1023.07
2019-02-27T10:53:05.528Z,1023.00
2019-02-27T10:54:05.605Z,1023.02
2019-02-27T10:55:05.493Z,1022.98
2019-02-27T10:56:05.487Z,1022.98
2019-02-27T10:57:06.024Z,1023.04
2019-02-27T10:58:07.561Z,1023.01
2019-02-27T10:59:05.460Z,1023.02
2019-02-27T11:00:05.439Z,1022.93
2019-02-27T11:01:05.426Z,1022.95
2019-02-27T11:02:05.418Z,1022.93
2019-02-27T11:03:05.407Z,1022.89
2019-02-27T11:04:05.395Z,1022.88
2019-02-27T11:05:05.404Z,1022.87
2019-02-27T11:06:05.379Z,1022.90
2019-02-27T11:07:05.362Z,1022.81
2019-02-27T11:08:05.353Z,1022.81
2019-02-27T11:09:05.367Z,1022.78
2019-02-27T11:10:05.331Z,1022.79
2019-02-27T11:11:05.336Z,1022.81
2019-02-27T11:12:05.313Z,1022.77
2019-02-27T11:13:06.715Z,1022.71
2019-02-27T11:14:05.289Z,1022.77
2019-02-27T11:15:05.277Z,1022.75
2019-02-27T11:16:05.266Z,1022.69
2019-02-27T11:17:05.265Z,1022.66
2019-02-27T11:18:05.928Z,1022.60
2019-02-27T11:19:05.235Z,1022.59
2019-02-27T11:20:05.229Z,1022.55
2019-02-27T11:21:05.212Z,1022.51
2019-02-27T11:22:05.206Z,1022.50
2019-02-27T11:23:07.083Z,1022.51
2019-02-27T11:24:05.180Z,1022.48
2019-02-27T11:25:05.170Z,1022.44
2019-02-27T11:26:05.158Z,1022.37
2019-02-27T11:27:06.190Z,1022.42
2019-02-27T11:28:05.141Z,1022.34
2019-02-27T11:29:05.138Z,1022.37
2019-02-27T11:30:05.116Z,1022.31
2019-02-27T11:31:05.105Z,1022.30
2019-02-27T11:32:05.096Z,1022.29
2019-02-27T11:33:05.084Z,1022.29
2019-02-27T11:34:07.838Z,1022.26
2019-02-27T11:35:05.075Z,1022.27
2019-02-27T11:36:05.667Z,1022.20
2019-02-27T11:37:05.052Z,1022.25
2019-02-27T11:38:05.033Z,1022.19
2019-02-27T11:39:05.027Z,1022.18
2019-02-27T11:40:05.416Z,1022.15
2019-02-27T11:41:05.009Z,1022.12
2019-02-27T11:42:04.989Z,1022.12
2019-02-27T11:43:07.007Z,1022.09
2019-02-27T11:44:04.968Z,1022.06
2019-02-27T11:45:04.957Z,1022.04
2019-02-27T11:46:04.948Z,1022.02
2019-02-27T11:47:04.946Z,1022.01
2019-02-27T11:48:04.925Z,1021.98
2019-02-27T11:49:04.914Z,1021.95
2019-02-27T11:50:04.903Z,1021.94
2019-02-27T11:51:04.893Z,1021.90
2019-02-27T11:52:04.882Z,1021.93
2019-02-27T11:53:04.885Z,1021.88
2019-02-27T11:54:04.861Z,1021.89
2019-02-27T11:55:04.850Z,1021.89
2019-02-27T11:56:04.843Z,1021.86
2019-02-27T11:57:04.828Z,1021.85
2019-02-27T11:58:05.593Z,1021.81
2019-02-27T11:59:04.819Z,1021.83
2019-02-27T12:00:04.799Z,1021.79
2019-02-27T12:01:04.786Z,1021.78
2019-02-27T12:02:04.776Z,1021.76
2019-02-27T12:03:04.770Z,1021.71
2019-02-27T12:04:04.754Z,1021.73
2019-02-27T12:05:04.753Z,1021.73
2019-02-27T12:06:05.358Z,1021.67
2019-02-27T12:07:04.723Z,1021.66
2019-02-27T12:08:04.711Z,1021.69
2019-02-27T12:09:04.707Z,1021.64
2019-02-27T12:10:06.604Z,1021.64
2019-02-27T12:11:04.690Z,1021.62
2019-02-27T12:12:04.670Z,1021.58
2019-02-27T12:13:04.658Z,1021.60
2019-02-27T12:14:06.533Z,1021.56
2019-02-27T12:15:06.772Z,1021.52
2019-02-27T12:16:04.626Z,1021.51
2019-02-27T12:17:04.626Z,1021.46
2019-02-27T12:18:04.605Z,1021.45
2019-02-27T12:19:06.420Z,1021.45
2019-02-27T12:20:04.586Z,1021.47
2019-02-27T12:21:04.572Z,1021.45
2019-02-27T12:22:04.561Z,1021.36
2019-02-27T12:23:04.569Z,1021.39
2019-02-27T12:24:05.451Z,1021.35
2019-02-27T12:25:04.528Z,1021.37
2019-02-27T12:26:04.517Z,1021.32
2019-02-27T12:27:04.508Z,1021.31
2019-02-27T12:28:04.506Z,1021.31
2019-02-27T12:29:04.494Z,1021.33
2019-02-27T12:30:04.473Z,1021.33
2019-02-27T12:31:04.461Z,1021.32
2019-02-27T12:32:06.117Z,1021.37
2019-02-27T12:33:04.439Z,1021.32
2019-02-27T12:34:04.428Z,1021.25